sensor_id;sensor_type;location;lat;lon;timestamp;P1;durP1;ratioP1;P2;durP2;ratioP2
53145;SDS011;39042;53.150;5.898;2023-09-19T00:02:17;8.10;;;1.30;;
53145;SDS011;39042;53.150;5.898;2023-09-19T00:04:43;8.95;;;1.52;;
53145;SDS011;39042;53.150;5.898;2023-09-19T00:09:35;7.72;;;0.70;;
53145;SDS011;39042;53.150;5.898;2023-09-19T00:12:04;8.48;;;1.27;;
53145;SDS011;39042;53.150;5.898;2023-09-19T00:14:31;13.52;;;1.27;;
53145;SDS011;39042;53.150;5.898;2023-09-19T00:17:01;8.35;;;1.13;;
53145;SDS011;39042;53.150;5.898;2023-09-19T00:19:36;8.02;;;1.08;;
53145;SDS011;39042;53.150;5.898;2023-09-19T00:22:03;8.00;;;0.80;;
53145;SDS011;39042;53.150;5.898;2023-09-19T00:24:29;10.57;;;1.17;;
53145;SDS011;39042;53.150;5.898;2023-09-19T00:26:56;8.43;;;1.35;;
53145;SDS011;39042;53.150;5.898;2023-09-19T00:29:24;6.80;;;1.25;;
53145;SDS011;39042;53.150;5.898;2023-09-19T00:31:54;11.50;;;0.95;;
53145;SDS011;39042;53.150;5.898;2023-09-19T00:34:22;7.32;;;1.00;;
53145;SDS011;39042;53.150;5.898;2023-09-19T00:36:53;9.38;;;1.30;;
53145;SDS011;39042;53.150;5.898;2023-09-19T00:39:18;10.07;;;1.47;;
53145;SDS011;39042;53.150;5.898;2023-09-19T00:41:57;8.80;;;0.98;;
53145;SDS011;39042;53.150;5.898;2023-09-19T00:44:35;4.65;;;0.80;;
53145;SDS011;39042;53.150;5.898;2023-09-19T00:47:07;6.50;;;0.70;;
53145;SDS011;39042;53.150;5.898;2023-09-19T00:49:34;9.80;;;1.02;;
53145;SDS011;39042;53.150;5.898;2023-09-19T00:52:00;8.57;;;1.30;;
53145;SDS011;39042;53.150;5.898;2023-09-19T00:54:26;9.43;;;1.30;;
53145;SDS011;39042;53.150;5.898;2023-09-19T00:56:59;7.68;;;1.33;;
53145;SDS011;39042;53.150;5.898;2023-09-19T00:59:28;8.40;;;1.17;;
53145;SDS011;39042;53.150;5.898;2023-09-19T01:01:57;4.88;;;1.15;;
53145;SDS011;39042;53.150;5.898;2023-09-19T01:04:25;10.23;;;1.08;;
53145;SDS011;39042;53.150;5.898;2023-09-19T01:06:52;5.78;;;0.75;;
53145;SDS011;39042;53.150;5.898;2023-09-19T01:09:19;11.05;;;1.33;;
53145;SDS011;39042;53.150;5.898;2023-09-19T01:11:47;8.00;;;0.90;;
53145;SDS011;39042;53.150;5.898;2023-09-19T01:16:56;9.73;;;1.10;;
53145;SDS011;39042;53.150;5.898;2023-09-19T01:19:38;6.05;;;0.93;;
53145;SDS011;39042;53.150;5.898;2023-09-19T01:22:29;8.40;;;1.15;;
53145;SDS011;39042;53.150;5.898;2023-09-19T01:30:52;5.95;;;0.88;;
53145;SDS011;39042;53.150;5.898;2023-09-19T01:33:23;6.97;;;0.75;;
53145;SDS011;39042;53.150;5.898;2023-09-19T01:35:49;9.65;;;1.25;;
53145;SDS011;39042;53.150;5.898;2023-09-19T01:38:18;6.30;;;0.70;;
53145;SDS011;39042;53.150;5.898;2023-09-19T01:40:48;5.65;;;0.68;;
53145;SDS011;39042;53.150;5.898;2023-09-19T01:43:37;11.98;;;1.60;;
53145;SDS011;39042;53.150;5.898;2023-09-19T01:46:13;6.35;;;0.90;;
53145;SDS011;39042;53.150;5.898;2023-09-19T01:51:30;8.20;;;0.40;;
53145;SDS011;39042;53.150;5.898;2023-09-19T01:54:03;6.57;;;1.10;;
53145;SDS011;39042;53.150;5.898;2023-09-19T01:56:37;6.57;;;1.02;;
53145;SDS011;39042;53.150;5.898;2023-09-19T01:59:13;8.30;;;0.75;;
53145;SDS011;39042;53.150;5.898;2023-09-19T02:01:46;5.57;;;0.70;;
53145;SDS011;39042;53.150;5.898;2023-09-19T02:04:14;8.02;;;1.00;;
53145;SDS011;39042;53.150;5.898;2023-09-19T02:06:40;7.90;;;1.60;;
53145;SDS011;39042;53.150;5.898;2023-09-19T02:09:07;7.90;;;0.85;;
53145;SDS011;39042;53.150;5.898;2023-09-19T02:14:00;3.53;;;0.60;;
53145;SDS011;39042;53.150;5.898;2023-09-19T02:16:27;5.28;;;0.88;;
53145;SDS011;39042;53.150;5.898;2023-09-19T02:18:54;5.82;;;1.13;;
53145;SDS011;39042;53.150;5.898;2023-09-19T02:21:19;7.27;;;0.90;;
53145;SDS011;39042;53.150;5.898;2023-09-19T02:23:47;6.38;;;1.00;;
53145;SDS011;39042;53.150;5.898;2023-09-19T02:26:13;7.80;;;0.70;;
53145;SDS011;39042;53.150;5.898;2023-09-19T02:28:40;6.40;;;0.88;;
53145;SDS011;39042;53.150;5.898;2023-09-19T02:31:08;6.40;;;0.75;;
53145;SDS011;39042;53.150;5.898;2023-09-19T02:33:34;8.90;;;0.50;;
53145;SDS011;39042;53.150;5.898;2023-09-19T02:36:00;8.40;;;0.65;;
53145;SDS011;39042;53.150;5.898;2023-09-19T02:38:29;5.50;;;0.70;;
53145;SDS011;39042;53.150;5.898;2023-09-19T02:40:55;4.25;;;0.60;;
53145;SDS011;39042;53.150;5.898;2023-09-19T02:43:21;3.45;;;0.38;;
53145;SDS011;39042;53.150;5.898;2023-09-19T02:48:20;5.60;;;0.80;;
53145;SDS011;39042;53.150;5.898;2023-09-19T02:50:49;8.18;;;0.90;;
53145;SDS011;39042;53.150;5.898;2023-09-19T02:53:15;10.82;;;1.15;;
53145;SDS011;39042;53.150;5.898;2023-09-19T02:55:41;8.27;;;0.93;;
53145;SDS011;39042;53.150;5.898;2023-09-19T02:58:08;8.07;;;1.15;;
53145;SDS011;39042;53.150;5.898;2023-09-19T03:00:36;6.47;;;1.30;;
53145;SDS011;39042;53.150;5.898;2023-09-19T03:03:03;5.05;;;0.70;;
53145;SDS011;39042;53.150;5.898;2023-09-19T03:05:32;8.00;;;0.70;;
53145;SDS011;39042;53.150;5.898;2023-09-19T03:07:58;7.45;;;0.95;;
53145;SDS011;39042;53.150;5.898;2023-09-19T03:10:26;7.30;;;0.80;;
53145;SDS011;39042;53.150;5.898;2023-09-19T03:12:54;6.80;;;0.77;;
53145;SDS011;39042;53.150;5.898;2023-09-19T03:15:20;6.78;;;0.82;;
53145;SDS011;39042;53.150;5.898;2023-09-19T03:17:49;7.93;;;0.88;;
53145;SDS011;39042;53.150;5.898;2023-09-19T03:20:19;10.65;;;1.05;;
53145;SDS011;39042;53.150;5.898;2023-09-19T03:22:47;6.65;;;1.00;;
53145;SDS011;39042;53.150;5.898;2023-09-19T03:25:14;10.45;;;1.00;;
53145;SDS011;39042;53.150;5.898;2023-09-19T03:27:45;9.70;;;0.98;;
53145;SDS011;39042;53.150;5.898;2023-09-19T03:30:12;9.13;;;1.25;;
53145;SDS011;39042;53.150;5.898;2023-09-19T03:32:46;4.78;;;1.08;;
53145;SDS011;39042;53.150;5.898;2023-09-19T03:35:16;10.10;;;1.15;;
53145;SDS011;39042;53.150;5.898;2023-09-19T03:37:42;5.63;;;0.85;;
53145;SDS011;39042;53.150;5.898;2023-09-19T03:40:09;8.98;;;1.17;;
53145;SDS011;39042;53.150;5.898;2023-09-19T03:42:40;9.15;;;0.90;;
53145;SDS011;39042;53.150;5.898;2023-09-19T03:45:08;8.18;;;0.70;;
53145;SDS011;39042;53.150;5.898;2023-09-19T03:47:39;12.18;;;0.80;;
53145;SDS011;39042;53.150;5.898;2023-09-19T03:50:07;7.57;;;0.80;;
53145;SDS011;39042;53.150;5.898;2023-09-19T03:52:36;11.02;;;1.02;;
53145;SDS011;39042;53.150;5.898;2023-09-19T03:55:02;3.90;;;0.80;;
53145;SDS011;39042;53.150;5.898;2023-09-19T03:57:29;7.00;;;0.65;;
53145;SDS011;39042;53.150;5.898;2023-09-19T03:59:55;10.18;;;1.15;;
53145;SDS011;39042;53.150;5.898;2023-09-19T04:02:21;10.70;;;1.00;;
53145;SDS011;39042;53.150;5.898;2023-09-19T04:04:49;7.97;;;0.82;;
53145;SDS011;39042;53.150;5.898;2023-09-19T04:07:18;8.10;;;0.70;;
53145;SDS011;39042;53.150;5.898;2023-09-19T04:09:47;11.48;;;1.13;;
53145;SDS011;39042;53.150;5.898;2023-09-19T04:12:14;7.55;;;1.00;;
53145;SDS011;39042;53.150;5.898;2023-09-19T04:14:42;11.38;;;1.30;;
53145;SDS011;39042;53.150;5.898;2023-09-19T04:17:09;6.93;;;0.80;;
53145;SDS011;39042;53.150;5.898;2023-09-19T04:19:36;5.30;;;0.82;;
53145;SDS011;39042;53.150;5.898;2023-09-19T04:24:29;9.77;;;1.48;;
53145;SDS011;39042;53.150;5.898;2023-09-19T04:26:57;5.53;;;1.05;;
53145;SDS011;39042;53.150;5.898;2023-09-19T04:29:24;8.90;;;0.77;;
53145;SDS011;39042;53.150;5.898;2023-09-19T04:31:51;7.57;;;0.95;;
53145;SDS011;39042;53.150;5.898;2023-09-19T04:34:17;8.43;;;0.80;;
53145;SDS011;39042;53.150;5.898;2023-09-19T04:36:43;6.57;;;0.73;;
53145;SDS011;39042;53.150;5.898;2023-09-19T04:39:09;9.13;;;1.00;;
53145;SDS011;39042;53.150;5.898;2023-09-19T04:41:37;7.65;;;1.05;;
53145;SDS011;39042;53.150;5.898;2023-09-19T04:44:06;6.63;;;1.08;;
53145;SDS011;39042;53.150;5.898;2023-09-19T04:46:32;11.00;;;1.10;;
53145;SDS011;39042;53.150;5.898;2023-09-19T04:48:59;8.45;;;0.68;;
53145;SDS011;39042;53.150;5.898;2023-09-19T04:51:24;12.32;;;0.90;;
53145;SDS011;39042;53.150;5.898;2023-09-19T04:53:54;8.48;;;1.20;;
53145;SDS011;39042;53.150;5.898;2023-09-19T04:58:48;3.65;;;0.80;;
53145;SDS011;39042;53.150;5.898;2023-09-19T05:01:14;10.80;;;0.93;;
53145;SDS011;39042;53.150;5.898;2023-09-19T05:03:40;6.15;;;0.63;;
53145;SDS011;39042;53.150;5.898;2023-09-19T05:06:06;8.88;;;0.55;;
53145;SDS011;39042;53.150;5.898;2023-09-19T05:08:32;8.50;;;1.00;;
53145;SDS011;39042;53.150;5.898;2023-09-19T05:10:58;9.43;;;1.03;;
53145;SDS011;39042;53.150;5.898;2023-09-19T05:13:26;5.70;;;0.80;;
53145;SDS011;39042;53.150;5.898;2023-09-19T05:15:52;7.87;;;0.80;;
53145;SDS011;39042;53.150;5.898;2023-09-19T05:18:18;6.67;;;0.63;;
53145;SDS011;39042;53.150;5.898;2023-09-19T05:20:44;9.30;;;0.93;;
53145;SDS011;39042;53.150;5.898;2023-09-19T05:23:10;8.95;;;0.98;;
53145;SDS011;39042;53.150;5.898;2023-09-19T05:25:39;8.82;;;0.85;;
53145;SDS011;39042;53.150;5.898;2023-09-19T05:30:32;7.38;;;1.52;;
53145;SDS011;39042;53.150;5.898;2023-09-19T05:32:58;7.88;;;0.93;;
53145;SDS011;39042;53.150;5.898;2023-09-19T05:35:24;7.10;;;1.00;;
53145;SDS011;39042;53.150;5.898;2023-09-19T05:40:18;8.05;;;0.50;;
53145;SDS011;39042;53.150;5.898;2023-09-19T05:42:45;10.45;;;1.30;;
53145;SDS011;39042;53.150;5.898;2023-09-19T05:45:12;9.55;;;1.15;;
53145;SDS011;39042;53.150;5.898;2023-09-19T05:50:05;7.33;;;0.90;;
53145;SDS011;39042;53.150;5.898;2023-09-19T05:52:37;8.45;;;0.60;;
53145;SDS011;39042;53.150;5.898;2023-09-19T05:55:07;6.50;;;0.82;;
53145;SDS011;39042;53.150;5.898;2023-09-19T05:57:33;7.45;;;1.10;;
53145;SDS011;39042;53.150;5.898;2023-09-19T06:00:00;9.68;;;1.42;;
53145;SDS011;39042;53.150;5.898;2023-09-19T06:02:26;9.93;;;0.85;;
53145;SDS011;39042;53.150;5.898;2023-09-19T06:04:54;10.57;;;0.90;;
53145;SDS011;39042;53.150;5.898;2023-09-19T06:09:47;7.78;;;0.80;;
53145;SDS011;39042;53.150;5.898;2023-09-19T06:12:13;11.20;;;0.90;;
53145;SDS011;39042;53.150;5.898;2023-09-19T06:14:42;11.32;;;1.20;;
53145;SDS011;39042;53.150;5.898;2023-09-19T06:17:08;7.80;;;0.77;;
53145;SDS011;39042;53.150;5.898;2023-09-19T06:19:34;5.03;;;0.70;;
53145;SDS011;39042;53.150;5.898;2023-09-19T06:22:00;4.93;;;0.80;;
53145;SDS011;39042;53.150;5.898;2023-09-19T06:24:26;4.28;;;0.60;;
53145;SDS011;39042;53.150;5.898;2023-09-19T06:26:52;6.35;;;0.70;;
53145;SDS011;39042;53.150;5.898;2023-09-19T06:29:18;10.57;;;1.07;;
53145;SDS011;39042;53.150;5.898;2023-09-19T06:31:45;9.32;;;0.80;;
53145;SDS011;39042;53.150;5.898;2023-09-19T06:34:12;8.00;;;0.85;;
53145;SDS011;39042;53.150;5.898;2023-09-19T06:36:40;14.25;;;1.40;;
53145;SDS011;39042;53.150;5.898;2023-09-19T06:39:07;11.00;;;1.10;;
53145;SDS011;39042;53.150;5.898;2023-09-19T06:41:36;5.05;;;0.75;;
53145;SDS011;39042;53.150;5.898;2023-09-19T06:44:09;7.00;;;1.33;;
53145;SDS011;39042;53.150;5.898;2023-09-19T06:46:35;12.70;;;1.08;;
53145;SDS011;39042;53.150;5.898;2023-09-19T06:49:04;10.23;;;0.80;;
53145;SDS011;39042;53.150;5.898;2023-09-19T06:51:31;7.57;;;0.80;;
53145;SDS011;39042;53.150;5.898;2023-09-19T06:54:00;9.15;;;1.25;;
53145;SDS011;39042;53.150;5.898;2023-09-19T06:56:27;8.20;;;0.70;;
53145;SDS011;39042;53.150;5.898;2023-09-19T06:58:52;5.50;;;0.57;;
53145;SDS011;39042;53.150;5.898;2023-09-19T07:01:18;8.05;;;0.57;;
53145;SDS011;39042;53.150;5.898;2023-09-19T07:03:44;4.45;;;0.60;;
53145;SDS011;39042;53.150;5.898;2023-09-19T07:06:11;9.18;;;0.65;;
53145;SDS011;39042;53.150;5.898;2023-09-19T07:08:37;9.32;;;0.60;;
53145;SDS011;39042;53.150;5.898;2023-09-19T07:11:03;6.18;;;0.80;;
53145;SDS011;39042;53.150;5.898;2023-09-19T07:13:31;7.13;;;0.88;;
53145;SDS011;39042;53.150;5.898;2023-09-19T07:16:00;6.97;;;0.85;;
53145;SDS011;39042;53.150;5.898;2023-09-19T07:18:26;8.07;;;0.98;;
53145;SDS011;39042;53.150;5.898;2023-09-19T07:20:56;6.95;;;0.80;;
53145;SDS011;39042;53.150;5.898;2023-09-19T07:23:24;11.18;;;1.55;;
53145;SDS011;39042;53.150;5.898;2023-09-19T07:25:51;7.65;;;1.20;;
53145;SDS011;39042;53.150;5.898;2023-09-19T07:28:17;9.50;;;1.55;;
53145;SDS011;39042;53.150;5.898;2023-09-19T07:30:43;10.43;;;1.20;;
53145;SDS011;39042;53.150;5.898;2023-09-19T07:33:09;12.48;;;1.40;;
53145;SDS011;39042;53.150;5.898;2023-09-19T07:35:38;8.40;;;0.80;;
53145;SDS011;39042;53.150;5.898;2023-09-19T07:38:07;11.00;;;1.48;;
53145;SDS011;39042;53.150;5.898;2023-09-19T07:40:35;9.27;;;1.20;;
53145;SDS011;39042;53.150;5.898;2023-09-19T07:43:01;7.85;;;0.98;;
53145;SDS011;39042;53.150;5.898;2023-09-19T07:45:29;7.05;;;0.90;;
53145;SDS011;39042;53.150;5.898;2023-09-19T07:47:55;9.23;;;1.15;;
53145;SDS011;39042;53.150;5.898;2023-09-19T07:50:21;9.90;;;1.48;;
53145;SDS011;39042;53.150;5.898;2023-09-19T07:52:48;9.48;;;1.25;;
53145;SDS011;39042;53.150;5.898;2023-09-19T07:55:16;9.38;;;0.85;;
53145;SDS011;39042;53.150;5.898;2023-09-19T07:57:43;13.05;;;1.23;;
53145;SDS011;39042;53.150;5.898;2023-09-19T08:00:09;10.38;;;1.90;;
53145;SDS011;39042;53.150;5.898;2023-09-19T08:02:39;8.82;;;0.95;;
53145;SDS011;39042;53.150;5.898;2023-09-19T08:05:06;10.35;;;1.38;;
53145;SDS011;39042;53.150;5.898;2023-09-19T08:07:42;10.35;;;1.10;;
53145;SDS011;39042;53.150;5.898;2023-09-19T08:10:10;12.88;;;1.08;;
53145;SDS011;39042;53.150;5.898;2023-09-19T08:12:44;9.63;;;1.13;;
53145;SDS011;39042;53.150;5.898;2023-09-19T08:15:19;9.55;;;1.25;;
53145;SDS011;39042;53.150;5.898;2023-09-19T08:17:45;7.95;;;1.17;;
53145;SDS011;39042;53.150;5.898;2023-09-19T08:22:52;10.52;;;1.35;;
53145;SDS011;39042;53.150;5.898;2023-09-19T08:25:20;10.07;;;1.50;;
53145;SDS011;39042;53.150;5.898;2023-09-19T08:27:47;11.05;;;0.93;;
53145;SDS011;39042;53.150;5.898;2023-09-19T08:30:21;8.50;;;1.10;;
53145;SDS011;39042;53.150;5.898;2023-09-19T08:32:58;7.18;;;0.77;;
53145;SDS011;39042;53.150;5.898;2023-09-19T08:35:25;9.10;;;1.33;;
53145;SDS011;39042;53.150;5.898;2023-09-19T08:37:51;8.40;;;0.88;;
53145;SDS011;39042;53.150;5.898;2023-09-19T08:40:18;8.82;;;0.98;;
53145;SDS011;39042;53.150;5.898;2023-09-19T08:42:48;5.90;;;1.05;;
53145;SDS011;39042;53.150;5.898;2023-09-19T08:45:15;9.07;;;1.08;;
53145;SDS011;39042;53.150;5.898;2023-09-19T08:47:46;10.85;;;1.30;;
53145;SDS011;39042;53.150;5.898;2023-09-19T08:50:26;7.38;;;1.05;;
53145;SDS011;39042;53.150;5.898;2023-09-19T08:52:56;8.50;;;1.25;;
53145;SDS011;39042;53.150;5.898;2023-09-19T08:55:27;10.20;;;1.40;;
53145;SDS011;39042;53.150;5.898;2023-09-19T08:58:06;14.10;;;1.77;;
53145;SDS011;39042;53.150;5.898;2023-09-19T09:00:38;9.75;;;1.52;;
53145;SDS011;39042;53.150;5.898;2023-09-19T09:03:07;8.73;;;1.90;;
53145;SDS011;39042;53.150;5.898;2023-09-19T09:05:35;10.10;;;1.40;;
53145;SDS011;39042;53.150;5.898;2023-09-19T09:08:02;8.18;;;1.77;;
53145;SDS011;39042;53.150;5.898;2023-09-19T09:10:31;7.35;;;1.05;;
53145;SDS011;39042;53.150;5.898;2023-09-19T09:12:57;6.55;;;0.80;;
53145;SDS011;39042;53.150;5.898;2023-09-19T09:15:24;9.80;;;1.30;;
53145;SDS011;39042;53.150;5.898;2023-09-19T09:17:50;9.52;;;1.23;;
53145;SDS011;39042;53.150;5.898;2023-09-19T09:20:20;10.50;;;1.20;;
53145;SDS011;39042;53.150;5.898;2023-09-19T09:22:50;10.30;;;1.45;;
53145;SDS011;39042;53.150;5.898;2023-09-19T09:25:17;8.98;;;1.20;;
53145;SDS011;39042;53.150;5.898;2023-09-19T09:27:44;11.45;;;1.70;;
53145;SDS011;39042;53.150;5.898;2023-09-19T09:30:33;10.48;;;1.50;;
53145;SDS011;39042;53.150;5.898;2023-09-19T09:33:13;11.15;;;1.27;;
53145;SDS011;39042;53.150;5.898;2023-09-19T09:35:53;10.00;;;1.88;;
53145;SDS011;39042;53.150;5.898;2023-09-19T09:38:26;9.05;;;1.85;;
53145;SDS011;39042;53.150;5.898;2023-09-19T09:40:54;8.77;;;2.42;;
53145;SDS011;39042;53.150;5.898;2023-09-19T09:43:30;11.30;;;1.70;;
53145;SDS011;39042;53.150;5.898;2023-09-19T09:46:10;11.90;;;1.80;;
53145;SDS011;39042;53.150;5.898;2023-09-19T09:49:05;13.20;;;1.60;;
53145;SDS011;39042;53.150;5.898;2023-09-19T09:52:04;12.38;;;1.67;;
53145;SDS011;39042;53.150;5.898;2023-09-19T09:54:35;8.57;;;1.70;;
53145;SDS011;39042;53.150;5.898;2023-09-19T09:57:05;9.50;;;1.55;;
53145;SDS011;39042;53.150;5.898;2023-09-19T09:59:51;14.95;;;2.10;;
53145;SDS011;39042;53.150;5.898;2023-09-19T10:02:28;6.55;;;0.85;;
53145;SDS011;39042;53.150;5.898;2023-09-19T10:04:58;12.25;;;1.52;;
53145;SDS011;39042;53.150;5.898;2023-09-19T10:07:39;12.35;;;2.22;;
53145;SDS011;39042;53.150;5.898;2023-09-19T10:10:14;13.02;;;1.73;;
53145;SDS011;39042;53.150;5.898;2023-09-19T10:12:54;12.38;;;1.67;;
53145;SDS011;39042;53.150;5.898;2023-09-19T10:15:28;11.52;;;2.00;;
53145;SDS011;39042;53.150;5.898;2023-09-19T10:17:57;6.78;;;1.30;;
53145;SDS011;39042;53.150;5.898;2023-09-19T10:20:36;13.80;;;2.83;;
53145;SDS011;39042;53.150;5.898;2023-09-19T10:23:07;11.43;;;1.90;;
53145;SDS011;39042;53.150;5.898;2023-09-19T10:25:43;7.63;;;1.83;;
53145;SDS011;39042;53.150;5.898;2023-09-19T10:28:13;11.52;;;1.80;;
53145;SDS011;39042;53.150;5.898;2023-09-19T10:30:44;14.45;;;2.00;;
53145;SDS011;39042;53.150;5.898;2023-09-19T10:33:13;10.68;;;2.42;;
53145;SDS011;39042;53.150;5.898;2023-09-19T10:35:43;12.45;;;2.05;;
53145;SDS011;39042;53.150;5.898;2023-09-19T10:38:11;12.85;;;1.75;;
53145;SDS011;39042;53.150;5.898;2023-09-19T10:40:39;12.90;;;1.83;;
53145;SDS011;39042;53.150;5.898;2023-09-19T10:43:11;12.70;;;1.70;;
53145;SDS011;39042;53.150;5.898;2023-09-19T10:45:38;12.70;;;2.42;;
53145;SDS011;39042;53.150;5.898;2023-09-19T10:48:05;14.80;;;2.25;;
53145;SDS011;39042;53.150;5.898;2023-09-19T10:50:43;12.57;;;2.50;;
53145;SDS011;39042;53.150;5.898;2023-09-19T10:55:51;9.93;;;1.95;;
53145;SDS011;39042;53.150;5.898;2023-09-19T10:58:26;14.38;;;2.17;;
53145;SDS011;39042;53.150;5.898;2023-09-19T11:00:59;8.30;;;1.70;;
53145;SDS011;39042;53.150;5.898;2023-09-19T11:03:40;11.57;;;1.92;;
53145;SDS011;39042;53.150;5.898;2023-09-19T11:06:16;8.68;;;1.98;;
53145;SDS011;39042;53.150;5.898;2023-09-19T11:14:13;10.80;;;1.85;;
53145;SDS011;39042;53.150;5.898;2023-09-19T11:16:39;8.98;;;2.10;;
53145;SDS011;39042;53.150;5.898;2023-09-19T11:19:57;9.90;;;1.50;;
53145;SDS011;39042;53.150;5.898;2023-09-19T11:30:42;10.70;;;2.35;;
53145;SDS011;39042;53.150;5.898;2023-09-19T11:33:28;9.93;;;2.15;;
53145;SDS011;39042;53.150;5.898;2023-09-19T11:51:45;13.18;;;1.90;;
53145;SDS011;39042;53.150;5.898;2023-09-19T11:54:13;16.65;;;2.20;;
53145;SDS011;39042;53.150;5.898;2023-09-19T11:56:43;13.32;;;2.25;;
53145;SDS011;39042;53.150;5.898;2023-09-19T11:59:20;10.63;;;2.35;;
53145;SDS011;39042;53.150;5.898;2023-09-19T12:01:53;10.70;;;2.40;;
53145;SDS011;39042;53.150;5.898;2023-09-19T12:07:10;11.48;;;2.17;;
53145;SDS011;39042;53.150;5.898;2023-09-19T12:12:13;9.25;;;1.65;;
53145;SDS011;39042;53.150;5.898;2023-09-19T12:14:48;6.32;;;1.63;;
53145;SDS011;39042;53.150;5.898;2023-09-19T12:17:16;11.15;;;1.55;;
53145;SDS011;39042;53.150;5.898;2023-09-19T12:19:50;8.70;;;1.50;;
53145;SDS011;39042;53.150;5.898;2023-09-19T12:22:17;8.77;;;1.83;;
53145;SDS011;39042;53.150;5.898;2023-09-19T12:24:44;9.45;;;1.50;;
53145;SDS011;39042;53.150;5.898;2023-09-19T12:27:11;10.63;;;1.15;;
53145;SDS011;39042;53.150;5.898;2023-09-19T12:32:10;9.20;;;1.40;;
53145;SDS011;39042;53.150;5.898;2023-09-19T12:34:36;11.60;;;1.25;;
53145;SDS011;39042;53.150;5.898;2023-09-19T12:37:08;9.80;;;1.08;;
53145;SDS011;39042;53.150;5.898;2023-09-19T12:39:48;10.15;;;1.10;;
53145;SDS011;39042;53.150;5.898;2023-09-19T12:42:20;5.60;;;0.85;;
53145;SDS011;39042;53.150;5.898;2023-09-19T12:44:57;8.13;;;1.05;;
53145;SDS011;39042;53.150;5.898;2023-09-19T12:47:27;11.13;;;1.67;;
53145;SDS011;39042;53.150;5.898;2023-09-19T12:52:44;6.30;;;1.30;;
53145;SDS011;39042;53.150;5.898;2023-09-19T12:55:30;9.43;;;1.55;;
53145;SDS011;39042;53.150;5.898;2023-09-19T13:00:38;8.10;;;1.20;;
53145;SDS011;39042;53.150;5.898;2023-09-19T13:05:52;6.75;;;1.55;;
53145;SDS011;39042;53.150;5.898;2023-09-19T13:08:29;4.75;;;1.25;;
53145;SDS011;39042;53.150;5.898;2023-09-19T13:11:04;5.05;;;0.70;;
53145;SDS011;39042;53.150;5.898;2023-09-19T13:16:19;6.88;;;1.17;;
53145;SDS011;39042;53.150;5.898;2023-09-19T13:18:51;8.23;;;1.40;;
53145;SDS011;39042;53.150;5.898;2023-09-19T13:21:34;4.82;;;0.65;;
53145;SDS011;39042;53.150;5.898;2023-09-19T13:24:17;6.10;;;0.65;;
53145;SDS011;39042;53.150;5.898;2023-09-19T13:26:45;6.35;;;1.00;;
53145;SDS011;39042;53.150;5.898;2023-09-19T13:29:11;3.08;;;0.75;;
53145;SDS011;39042;53.150;5.898;2023-09-19T13:31:37;6.38;;;1.17;;
53145;SDS011;39042;53.150;5.898;2023-09-19T13:34:07;5.30;;;1.10;;
53145;SDS011;39042;53.150;5.898;2023-09-19T13:36:33;7.13;;;0.80;;
53145;SDS011;39042;53.150;5.898;2023-09-19T13:38:59;5.22;;;1.25;;
53145;SDS011;39042;53.150;5.898;2023-09-19T13:41:25;5.32;;;1.20;;
53145;SDS011;39042;53.150;5.898;2023-09-19T13:43:51;7.03;;;1.15;;
53145;SDS011;39042;53.150;5.898;2023-09-19T13:46:18;5.53;;;0.77;;
53145;SDS011;39042;53.150;5.898;2023-09-19T13:48:50;3.75;;;1.02;;
53145;SDS011;39042;53.150;5.898;2023-09-19T13:51:20;6.50;;;1.15;;
53145;SDS011;39042;53.150;5.898;2023-09-19T13:53:49;4.97;;;0.90;;
53145;SDS011;39042;53.150;5.898;2023-09-19T13:56:15;6.50;;;0.90;;
53145;SDS011;39042;53.150;5.898;2023-09-19T13:58:41;5.28;;;0.93;;
53145;SDS011;39042;53.150;5.898;2023-09-19T14:01:08;6.20;;;1.77;;
53145;SDS011;39042;53.150;5.898;2023-09-19T14:03:38;6.47;;;1.30;;
53145;SDS011;39042;53.150;5.898;2023-09-19T14:06:05;8.20;;;1.23;;
53145;SDS011;39042;53.150;5.898;2023-09-19T14:08:31;8.73;;;1.27;;
53145;SDS011;39042;53.150;5.898;2023-09-19T14:10:59;8.35;;;1.70;;
53145;SDS011;39042;53.150;5.898;2023-09-19T14:13:30;10.43;;;2.00;;
53145;SDS011;39042;53.150;5.898;2023-09-19T14:15:56;7.30;;;1.38;;
53145;SDS011;39042;53.150;5.898;2023-09-19T14:18:22;6.70;;;1.30;;
53145;SDS011;39042;53.150;5.898;2023-09-19T14:20:48;6.05;;;1.50;;
53145;SDS011;39042;53.150;5.898;2023-09-19T14:23:15;7.95;;;1.13;;
53145;SDS011;39042;53.150;5.898;2023-09-19T14:25:41;6.55;;;1.65;;
53145;SDS011;39042;53.150;5.898;2023-09-19T14:28:07;5.47;;;0.95;;
53145;SDS011;39042;53.150;5.898;2023-09-19T14:30:35;8.55;;;1.08;;
53145;SDS011;39042;53.150;5.898;2023-09-19T14:33:02;6.70;;;1.33;;
53145;SDS011;39042;53.150;5.898;2023-09-19T14:35:29;9.68;;;2.20;;
53145;SDS011;39042;53.150;5.898;2023-09-19T14:37:55;10.07;;;1.30;;
53145;SDS011;39042;53.150;5.898;2023-09-19T14:40:21;8.43;;;1.83;;
53145;SDS011;39042;53.150;5.898;2023-09-19T14:45:13;9.43;;;1.52;;
53145;SDS011;39042;53.150;5.898;2023-09-19T14:47:43;8.95;;;2.13;;
53145;SDS011;39042;53.150;5.898;2023-09-19T14:50:11;13.65;;;3.03;;
53145;SDS011;39042;53.150;5.898;2023-09-19T14:55:05;10.68;;;1.88;;
53145;SDS011;39042;53.150;5.898;2023-09-19T14:57:34;10.48;;;1.23;;
53145;SDS011;39042;53.150;5.898;2023-09-19T15:00:01;9.23;;;2.10;;
53145;SDS011;39042;53.150;5.898;2023-09-19T15:02:30;13.90;;;2.28;;
53145;SDS011;39042;53.150;5.898;2023-09-19T15:04:56;11.77;;;1.80;;
53145;SDS011;39042;53.150;5.898;2023-09-19T15:07:22;8.73;;;1.55;;
53145;SDS011;39042;53.150;5.898;2023-09-19T15:09:48;8.95;;;1.45;;
53145;SDS011;39042;53.150;5.898;2023-09-19T15:12:13;9.82;;;1.88;;
53145;SDS011;39042;53.150;5.898;2023-09-19T15:14:40;12.65;;;1.88;;
53145;SDS011;39042;53.150;5.898;2023-09-19T15:17:07;7.30;;;1.33;;
53145;SDS011;39042;53.150;5.898;2023-09-19T15:22:00;11.25;;;1.73;;
53145;SDS011;39042;53.150;5.898;2023-09-19T15:24:26;11.00;;;1.88;;
53145;SDS011;39042;53.150;5.898;2023-09-19T15:26:52;12.85;;;1.77;;
53145;SDS011;39042;53.150;5.898;2023-09-19T15:29:20;6.78;;;1.48;;
53145;SDS011;39042;53.150;5.898;2023-09-19T15:31:47;6.15;;;1.30;;
53145;SDS011;39042;53.150;5.898;2023-09-19T15:34:12;10.20;;;1.83;;
53145;SDS011;39042;53.150;5.898;2023-09-19T15:36:41;11.20;;;1.42;;
53145;SDS011;39042;53.150;5.898;2023-09-19T15:39:07;10.23;;;1.70;;
53145;SDS011;39042;53.150;5.898;2023-09-19T15:41:40;8.55;;;1.77;;
53145;SDS011;39042;53.150;5.898;2023-09-19T15:44:13;9.43;;;1.77;;
53145;SDS011;39042;53.150;5.898;2023-09-19T15:46:41;7.75;;;2.13;;
53145;SDS011;39042;53.150;5.898;2023-09-19T15:49:07;12.93;;;1.63;;
53145;SDS011;39042;53.150;5.898;2023-09-19T15:51:34;9.55;;;1.83;;
53145;SDS011;39042;53.150;5.898;2023-09-19T15:54:14;9.77;;;1.70;;
53145;SDS011;39042;53.150;5.898;2023-09-19T15:56:44;10.30;;;2.00;;
53145;SDS011;39042;53.150;5.898;2023-09-19T15:59:11;11.65;;;2.47;;
53145;SDS011;39042;53.150;5.898;2023-09-19T16:01:38;12.40;;;2.35;;
53145;SDS011;39042;53.150;5.898;2023-09-19T16:04:11;7.07;;;1.52;;
53145;SDS011;39042;53.150;5.898;2023-09-19T16:06:37;8.93;;;2.03;;
53145;SDS011;39042;53.150;5.898;2023-09-19T16:09:04;9.43;;;1.85;;
53145;SDS011;39042;53.150;5.898;2023-09-19T16:11:34;9.52;;;2.08;;
53145;SDS011;39042;53.150;5.898;2023-09-19T16:14:00;11.95;;;2.42;;
53145;SDS011;39042;53.150;5.898;2023-09-19T16:16:27;7.15;;;1.85;;
53145;SDS011;39042;53.150;5.898;2023-09-19T16:18:56;8.02;;;2.30;;
53145;SDS011;39042;53.150;5.898;2023-09-19T16:21:29;10.95;;;2.38;;
53145;SDS011;39042;53.150;5.898;2023-09-19T16:23:58;10.73;;;2.20;;
53145;SDS011;39042;53.150;5.898;2023-09-19T16:26:25;8.07;;;2.33;;
53145;SDS011;39042;53.150;5.898;2023-09-19T16:28:55;9.77;;;1.98;;
53145;SDS011;39042;53.150;5.898;2023-09-19T16:31:26;10.40;;;2.40;;